createdAt,value
2023-03-11T00:00:15.053Z,2.38
2023-03-11T00:00:46.965Z,2.38
2023-03-11T00:01:02.003Z,2.38
2023-03-11T00:01:33.638Z,2.27
2023-03-11T00:02:05.529Z,2.27
2023-03-11T00:02:37.438Z,2.27
2023-03-11T00:03:09.617Z,2.27
2023-03-11T00:03:41.554Z,2.27
2023-03-11T00:04:13.329Z,2.27
2023-03-11T00:04:29.557Z,2.27
2023-03-11T00:05:02.076Z,2.27
2023-03-11T00:05:45.970Z,2.27
2023-03-11T00:06:17.261Z,2.27
2023-03-11T00:06:49.204Z,2.27
2023-03-11T00:07:21.303Z,2.27
2023-03-11T00:07:53.371Z,2.27
2023-03-11T00:08:25.241Z,2.27
2023-03-11T00:08:57.245Z,2.27
2023-03-11T00:09:13.254Z,2.27
2023-03-11T00:09:57.256Z,2.27
2023-03-11T00:10:30.311Z,2.27
2023-03-11T00:11:01.331Z,2.27
2023-03-11T00:11:33.013Z,2.22
2023-03-11T00:12:05.296Z,2.22
2023-03-11T00:12:37.131Z,2.22
2023-03-11T00:13:08.968Z,2.22
2023-03-11T00:13:41.201Z,2.22
2023-03-11T00:14:13.139Z,2.22
2023-03-11T00:14:45.180Z,2.22
2023-03-11T00:15:17.609Z,2.11
2023-03-11T00:15:48.944Z,2.11
2023-03-11T00:16:21.096Z,2.11
2023-03-11T00:16:53.066Z,2.11
2023-03-11T00:17:24.776Z,2.11
2023-03-11T00:17:56.803Z,2.11
2023-03-11T00:18:12.935Z,2.11
2023-03-11T00:18:44.940Z,2.11
2023-03-11T00:19:01.225Z,2.11
2023-03-11T00:19:32.731Z,2.11
2023-03-11T00:20:05.014Z,2.11
2023-03-11T00:20:36.888Z,2.11
2023-03-11T00:21:08.837Z,2.11
2023-03-11T00:21:40.571Z,2.11
2023-03-11T00:22:12.846Z,2.11
2023-03-11T00:22:28.684Z,2.11
2023-03-11T00:23:00.787Z,2.11
2023-03-11T00:23:44.832Z,2.11
2023-03-11T00:24:16.399Z,2.11
2023-03-11T00:24:48.642Z,2.11
2023-03-11T00:25:20.830Z,2.11
2023-03-11T00:25:52.718Z,2.11
2023-03-11T00:26:24.482Z,2.11
2023-03-11T00:26:56.517Z,2.11
2023-03-11T00:27:12.909Z,2.11
2023-03-11T00:27:56.480Z,2.11
2023-03-11T00:28:28.464Z,2.11
2023-03-11T00:29:00.415Z,2.00
2023-03-11T00:29:32.430Z,2.00
2023-03-11T00:30:06.537Z,2.00
2023-03-11T00:30:36.378Z,2.00
2023-03-11T00:31:08.309Z,2.00
2023-03-11T00:31:40.262Z,2.00
2023-03-11T00:32:12.525Z,2.00
2023-03-11T00:32:44.449Z,2.11
2023-03-11T00:33:16.223Z,2.11
2023-03-11T00:33:48.250Z,2.11
2023-03-11T00:34:20.305Z,2.11
2023-03-11T00:34:52.209Z,2.11
2023-03-11T00:35:24.399Z,2.11
2023-03-11T00:35:56.436Z,2.11
2023-03-11T00:36:28.125Z,2.00
2023-03-11T00:36:59.983Z,2.00
2023-03-11T00:37:32.065Z,2.00
2023-03-11T00:38:04.511Z,2.00
2023-03-11T00:38:36.139Z,2.00
2023-03-11T00:39:07.832Z,2.00
2023-03-11T00:39:39.941Z,2.00
2023-03-11T00:40:12.365Z,2.00
2023-03-11T00:40:43.874Z,2.00
2023-03-11T00:41:15.889Z,2.00
2023-03-11T00:41:47.714Z,2.00
2023-03-11T00:42:19.736Z,2.00
2023-03-11T00:42:52.113Z,2.00
2023-03-11T00:43:23.678Z,2.00
2023-03-11T00:43:55.785Z,2.00
2023-03-11T00:44:12.073Z,2.00
2023-03-11T00:44:55.854Z,2.00
2023-03-11T00:45:28.308Z,2.00
2023-03-11T00:45:59.835Z,2.11
2023-03-11T00:46:31.720Z,2.11
2023-03-11T00:47:04.481Z,2.11
2023-03-11T00:47:35.902Z,2.11
2023-03-11T00:48:07.417Z,2.11
2023-03-11T00:48:39.589Z,2.11
2023-03-11T00:49:11.802Z,2.11
2023-03-11T00:49:43.472Z,2.11
2023-03-11T00:50:15.890Z,2.11
2023-03-11T00:50:47.534Z,2.22
2023-03-11T00:51:19.460Z,2.22
2023-03-11T00:51:51.765Z,2.22
2023-03-11T00:52:23.350Z,2.22
2023-03-11T00:52:55.405Z,2.11
2023-03-11T00:53:11.639Z,2.11
2023-03-11T00:53:43.314Z,2.11
2023-03-11T00:53:59.505Z,2.11
2023-03-11T00:54:31.341Z,2.11
2023-03-11T00:55:04.137Z,2.11
2023-03-11T00:55:35.261Z,2.22
2023-03-11T00:56:07.388Z,2.22
2023-03-11T00:56:39.128Z,2.22
2023-03-11T00:57:11.353Z,2.22
2023-03-11T00:57:27.291Z,2.22
2023-03-11T00:57:59.042Z,2.22
2023-03-11T00:58:43.213Z,2.22
2023-03-11T00:59:15.083Z,2.22
2023-03-11T00:59:46.936Z,2.27
2023-03-11T01:00:20.253Z,2.27
2023-03-11T01:00:51.419Z,2.27
2023-03-11T01:01:23.067Z,2.27
2023-03-11T01:01:54.919Z,2.27
2023-03-11T01:02:11.217Z,2.27
2023-03-11T01:02:55.047Z,2.27
2023-03-11T01:03:27.221Z,2.27
2023-03-11T01:03:58.759Z,2.27
2023-03-11T01:04:30.923Z,2.27
2023-03-11T01:05:05.212Z,2.27
2023-03-11T01:05:34.907Z,2.27
2023-03-11T01:06:06.828Z,2.27
2023-03-11T01:06:45.129Z,2.27
2023-03-11T01:07:11.452Z,2.27
2023-03-11T01:07:42.814Z,2.27
2023-03-11T01:08:14.674Z,2.27
2023-03-11T01:08:46.627Z,2.27
2023-03-11T01:09:18.638Z,2.27
2023-03-11T01:09:50.759Z,2.27
2023-03-11T01:10:22.816Z,2.27
2023-03-11T01:10:54.524Z,2.27
2023-03-11T01:11:26.603Z,2.27
2023-03-11T01:11:58.570Z,2.27
2023-03-11T01:12:30.505Z,2.27
2023-03-11T01:13:03.115Z,2.27
2023-03-11T01:13:34.568Z,2.27
2023-03-11T01:14:06.593Z,2.27
2023-03-11T01:14:38.357Z,2.27
2023-03-11T01:15:11.315Z,2.27
2023-03-11T01:15:26.563Z,2.27
2023-03-11T01:15:58.655Z,2.27
2023-03-11T01:16:42.538Z,2.27
2023-03-11T01:17:14.145Z,2.27
2023-03-11T01:17:46.461Z,2.27
2023-03-11T01:18:18.365Z,2.27
2023-03-11T01:18:50.221Z,2.27
2023-03-11T01:19:22.293Z,2.27
2023-03-11T01:19:54.245Z,2.27
2023-03-11T01:20:10.789Z,2.27
2023-03-11T01:20:54.244Z,2.27
2023-03-11T01:21:26.187Z,2.27
2023-03-11T01:21:58.053Z,2.27
2023-03-11T01:22:30.148Z,2.27
2023-03-11T01:23:02.411Z,2.27
2023-03-11T01:23:34.249Z,2.27
2023-03-11T01:24:06.022Z,2.27
2023-03-11T01:24:37.962Z,2.27
2023-03-11T01:25:10.300Z,2.27
2023-03-11T01:25:42.115Z,2.27
2023-03-11T01:26:13.846Z,2.27
2023-03-11T01:26:46.121Z,2.27
2023-03-11T01:27:17.893Z,2.27
2023-03-11T01:27:49.898Z,2.27
2023-03-11T01:28:21.930Z,2.27
2023-03-11T01:28:53.867Z,2.27
2023-03-11T01:29:10.080Z,2.27
2023-03-11T01:29:41.935Z,2.27
2023-03-11T01:29:57.829Z,2.27
2023-03-11T01:30:30.207Z,2.27
2023-03-11T01:31:02.057Z,2.27
2023-03-11T01:31:33.807Z,2.27
2023-03-11T01:32:05.821Z,2.27
2023-03-11T01:32:37.652Z,2.27
2023-03-11T01:33:09.797Z,2.27
2023-03-11T01:33:25.825Z,2.27
2023-03-11T01:33:57.662Z,2.27
2023-03-11T01:34:41.837Z,2.27
2023-03-11T01:35:13.866Z,2.27
2023-03-11T01:35:45.876Z,2.27
2023-03-11T01:36:17.503Z,2.27
2023-03-11T01:36:49.788Z,2.27
2023-03-11T01:37:21.613Z,2.27
2023-03-11T01:37:53.499Z,2.27
2023-03-11T01:38:09.766Z,2.22
2023-03-11T01:38:53.428Z,2.22
2023-03-11T01:39:25.592Z,2.11
2023-03-11T01:39:57.342Z,2.11
2023-03-11T01:40:29.662Z,2.11
2023-03-11T01:41:01.811Z,2.11
2023-03-11T01:41:33.528Z,2.11
2023-03-11T01:42:05.254Z,2.11
2023-03-11T01:42:37.242Z,2.11
2023-03-11T01:43:09.357Z,2.11
2023-03-11T01:43:41.480Z,2.11
2023-03-11T01:44:13.153Z,2.11
2023-03-11T01:44:45.377Z,2.11
2023-03-11T01:45:18.013Z,2.11
2023-03-11T01:45:49.530Z,2.00
2023-03-11T01:46:21.298Z,2.00
2023-03-11T01:46:53.105Z,2.00
2023-03-11T01:47:26.043Z,2.00
2023-03-11T01:47:57.074Z,2.00
2023-03-11T01:48:29.011Z,2.00
2023-03-11T01:49:01.384Z,2.00
2023-03-11T01:49:33.165Z,2.00
2023-03-11T01:50:05.394Z,1.88
2023-03-11T01:50:36.995Z,1.88
2023-03-11T01:51:08.945Z,1.88
2023-03-11T01:51:25.126Z,1.88
2023-03-11T01:51:56.828Z,1.88
2023-03-11T01:52:41.233Z,1.88
2023-03-11T01:53:12.918Z,1.88
2023-03-11T01:53:45.019Z,1.88
2023-03-11T01:54:16.909Z,1.88
2023-03-11T01:54:51.434Z,1.88
2023-03-11T01:55:21.251Z,1.77
2023-03-11T01:55:53.026Z,1.77
2023-03-11T01:56:24.890Z,1.77
2023-03-11T01:56:56.851Z,1.77
2023-03-11T01:57:28.604Z,1.77
2023-03-11T01:58:00.764Z,1.77
2023-03-11T01:58:32.663Z,1.77
2023-03-11T01:59:05.274Z,1.77
2023-03-11T01:59:36.673Z,1.77
2023-03-11T02:00:09.459Z,1.77
2023-03-11T02:00:40.753Z,1.77
2023-03-11T02:01:12.790Z,1.77
2023-03-11T02:01:44.536Z,1.72
2023-03-11T02:02:16.745Z,1.72
2023-03-11T02:02:48.633Z,1.72
2023-03-11T02:03:20.720Z,1.72
2023-03-11T02:03:52.705Z,1.72
2023-03-11T02:04:24.544Z,1.72
2023-03-11T02:04:56.455Z,1.72
2023-03-11T02:05:28.726Z,1.72
2023-03-11T02:06:00.433Z,1.72
2023-03-11T02:06:32.229Z,1.72
2023-03-11T02:07:04.907Z,1.72
2023-03-11T02:07:36.472Z,1.72
2023-03-11T02:08:08.206Z,1.72
2023-03-11T02:08:24.471Z,1.72
2023-03-11T02:08:56.155Z,1.72
2023-03-11T02:09:40.290Z,1.72
2023-03-11T02:10:12.618Z,1.72
2023-03-11T02:10:44.009Z,1.72
2023-03-11T02:11:16.293Z,1.72
2023-03-11T02:11:48.144Z,1.72
2023-03-11T02:12:20.091Z,1.72
2023-03-11T02:12:52.248Z,1.72
2023-03-11T02:13:23.958Z,1.72
2023-03-11T02:13:56.036Z,1.72
2023-03-11T02:14:28.068Z,1.72
2023-03-11T02:14:59.857Z,1.72
2023-03-11T02:15:32.320Z,1.72
2023-03-11T02:16:04.376Z,1.72
2023-03-11T02:16:35.909Z,1.72
2023-03-11T02:17:07.943Z,1.72
2023-03-11T02:17:23.781Z,1.72
2023-03-11T02:18:08.023Z,1.72
2023-03-11T02:18:40.045Z,1.72
2023-03-11T02:19:11.753Z,1.72
2023-03-11T02:19:43.618Z,1.72
2023-03-11T02:20:16.134Z,1.72
2023-03-11T02:20:47.929Z,1.77
2023-03-11T02:21:19.896Z,1.77
2023-03-11T02:21:51.857Z,1.77
2023-03-11T02:22:07.838Z,1.77
2023-03-11T02:22:39.556Z,1.77
2023-03-11T02:22:55.725Z,1.77
2023-03-11T02:23:27.651Z,1.77
2023-03-11T02:23:59.503Z,1.72
2023-03-11T02:24:31.685Z,1.72
2023-03-11T02:25:04.338Z,1.72
2023-03-11T02:25:35.525Z,1.72
2023-03-11T02:26:07.570Z,1.72
2023-03-11T02:26:23.559Z,1.72
2023-03-11T02:26:55.675Z,1.72
2023-03-11T02:27:39.564Z,1.72
2023-03-11T02:28:11.527Z,1.72
2023-03-11T02:28:43.286Z,1.72
2023-03-11T02:29:15.500Z,1.72
2023-03-11T02:29:47.266Z,1.72
2023-03-11T02:30:19.822Z,1.72
2023-03-11T02:30:51.549Z,1.72
2023-03-11T02:31:07.576Z,1.72
2023-03-11T02:31:51.447Z,1.72
2023-03-11T02:32:23.492Z,1.72
2023-03-11T02:32:55.320Z,1.72
2023-03-11T02:33:27.112Z,1.72
2023-03-11T02:33:59.178Z,1.72
2023-03-11T02:34:31.176Z,1.72
2023-03-11T02:35:03.755Z,1.72
2023-03-11T02:35:35.168Z,1.72
2023-03-11T02:36:07.144Z,1.72
2023-03-11T02:36:23.193Z,1.72
2023-03-11T02:37:07.222Z,1.61
2023-03-11T02:37:39.020Z,1.61
2023-03-11T02:38:10.965Z,1.50
2023-03-11T02:38:42.881Z,1.50
2023-03-11T02:39:15.054Z,1.50
2023-03-11T02:39:47.144Z,1.50
2023-03-11T02:40:19.170Z,1.50
2023-03-11T02:40:50.787Z,1.50
2023-03-11T02:41:22.890Z,1.61
2023-03-11T02:41:54.990Z,1.50
2023-03-11T02:42:26.723Z,1.61
2023-03-11T02:42:58.769Z,1.61
2023-03-11T02:43:31.109Z,1.61
2023-03-11T02:44:03.078Z,1.61
2023-03-11T02:44:34.736Z,1.50
2023-03-11T02:45:07.845Z,1.50
2023-03-11T02:45:38.680Z,1.50
2023-03-11T02:46:10.562Z,1.38
2023-03-11T02:46:42.775Z,1.38
2023-03-11T02:47:14.627Z,1.38
2023-03-11T02:47:46.716Z,1.38
2023-03-11T02:48:18.676Z,1.38
2023-03-11T02:48:50.446Z,1.38
2023-03-11T02:49:06.848Z,1.38
2023-03-11T02:49:50.535Z,1.38
2023-03-11T02:50:23.125Z,1.27
2023-03-11T02:50:54.430Z,1.27
2023-03-11T02:51:26.409Z,1.27
2023-03-11T02:51:58.406Z,1.27
2023-03-11T02:52:30.811Z,1.27
2023-03-11T02:53:02.749Z,1.27
2023-03-11T02:53:34.358Z,1.27
2023-03-11T02:54:06.405Z,1.27
2023-03-11T02:54:38.394Z,1.27
2023-03-11T02:55:10.462Z,1.27
2023-03-11T02:55:42.401Z,1.27
2023-03-11T02:56:14.174Z,1.22
2023-03-11T02:56:46.398Z,1.22
2023-03-11T02:57:18.104Z,1.22
2023-03-11T02:57:50.333Z,1.22
2023-03-11T02:58:22.260Z,1.22
2023-03-11T02:58:54.078Z,1.22
2023-03-11T02:59:26.077Z,1.22
2023-03-11T02:59:58.093Z,1.11
2023-03-11T03:00:30.430Z,1.11
2023-03-11T03:01:02.794Z,1.11
2023-03-11T03:01:33.939Z,1.11
2023-03-11T03:02:05.939Z,1.11
2023-03-11T03:02:22.073Z,1.11
2023-03-11T03:02:53.776Z,1.11
2023-03-11T03:03:38.200Z,1.11
2023-03-11T03:04:09.970Z,1.00
2023-03-11T03:04:42.012Z,1.00
2023-03-11T03:05:14.233Z,1.00
2023-03-11T03:05:46.089Z,1.00
2023-03-11T03:06:17.767Z,.88
2023-03-11T03:06:49.876Z,.88
2023-03-11T03:07:22.195Z,.88
2023-03-11T03:07:53.770Z,.88
2023-03-11T03:08:25.895Z,.88
2023-03-11T03:08:42.061Z,.77
2023-03-11T03:09:13.702Z,.77
2023-03-11T03:09:57.754Z,.77
2023-03-11T03:10:29.928Z,.77
2023-03-11T03:11:02.023Z,.77
2023-03-11T03:11:33.579Z,.77
2023-03-11T03:12:05.706Z,.77
2023-03-11T03:12:37.645Z,.77
2023-03-11T03:12:53.559Z,.77
2023-03-11T03:13:25.530Z,.77
2023-03-11T03:14:09.576Z,.77
2023-03-11T03:14:41.829Z,.77
2023-03-11T03:15:14.517Z,.77
2023-03-11T03:15:45.592Z,.72
2023-03-11T03:16:17.471Z,.72
2023-03-11T03:16:49.631Z,.72
2023-03-11T03:17:21.424Z,.72
2023-03-11T03:17:37.756Z,.72
2023-03-11T03:18:21.391Z,.72
2023-03-11T03:18:53.272Z,.72
2023-03-11T03:19:25.499Z,.72
2023-03-11T03:19:57.135Z,.72
2023-03-11T03:20:29.514Z,.61
2023-03-11T03:21:01.863Z,.61
2023-03-11T03:21:33.392Z,.61
2023-03-11T03:22:05.592Z,.61
2023-03-11T03:22:21.456Z,.61
2023-03-11T03:22:53.209Z,.61
2023-03-11T03:23:37.253Z,.61
2023-03-11T03:24:08.926Z,.61
2023-03-11T03:24:41.086Z,.61
2023-03-11T03:25:13.314Z,.50
2023-03-11T03:25:29.968Z,.50
2023-03-11T03:25:46.601Z,.50
2023-03-11T03:26:17.896Z,.50
2023-03-11T03:26:50.161Z,.50
2023-03-11T03:27:22.226Z,.50
2023-03-11T03:27:54.057Z,.50
2023-03-11T03:28:26.207Z,.50
2023-03-11T03:28:58.040Z,.50
2023-03-11T03:29:13.978Z,.61
2023-03-11T03:29:57.908Z,.61
2023-03-11T03:30:30.346Z,.50
2023-03-11T03:31:02.324Z,.50
2023-03-11T03:31:33.743Z,.50
2023-03-11T03:32:05.943Z,.50
2023-03-11T03:32:37.961Z,.50
2023-03-11T03:33:09.569Z,.50
2023-03-11T03:33:41.710Z,.50
2023-03-11T03:34:13.609Z,.50
2023-03-11T03:34:45.759Z,.50
2023-03-11T03:35:17.685Z,.38
2023-03-11T03:35:49.790Z,.38
2023-03-11T03:36:21.633Z,.38
2023-03-11T03:36:53.613Z,.38
2023-03-11T03:37:25.529Z,.38
2023-03-11T03:37:57.453Z,.38
2023-03-11T03:38:29.600Z,.38
2023-03-11T03:39:02.120Z,.38
2023-03-11T03:39:33.393Z,.38
2023-03-11T03:40:05.900Z,.38
2023-03-11T03:40:37.427Z,.38
2023-03-11T03:41:09.413Z,.27
2023-03-11T03:41:41.366Z,.27
2023-03-11T03:41:57.504Z,.27
2023-03-11T03:42:41.590Z,.27
2023-03-11T03:42:57.394Z,.27
2023-03-11T03:43:41.407Z,.27
2023-03-11T03:44:13.339Z,.27
2023-03-11T03:44:44.995Z,.27
2023-03-11T03:45:17.896Z,.27
2023-03-11T03:45:49.301Z,.27
2023-03-11T03:46:21.340Z,.27
2023-03-11T03:46:53.116Z,.27
2023-03-11T03:47:25.110Z,.27
2023-03-11T03:47:57.208Z,.27
2023-03-11T03:48:29.174Z,.27
2023-03-11T03:49:01.244Z,.27
2023-03-11T03:49:33.020Z,.27
2023-03-11T03:50:05.600Z,.22
2023-03-11T03:50:37.135Z,.22
2023-03-11T03:51:08.930Z,.22
2023-03-11T03:51:40.975Z,.22
2023-03-11T03:52:12.888Z,.22
2023-03-11T03:52:44.963Z,.22
2023-03-11T03:53:16.802Z,.22
2023-03-11T03:53:48.796Z,.22
2023-03-11T03:54:20.913Z,.22
2023-03-11T03:54:53.043Z,.22
2023-03-11T03:55:24.934Z,.22
2023-03-11T03:55:56.898Z,.22
2023-03-11T03:56:12.825Z,.22
2023-03-11T03:56:44.664Z,.22
2023-03-11T03:57:28.838Z,.22
2023-03-11T03:58:00.604Z,.11
2023-03-11T03:58:32.975Z,.11
2023-03-11T03:59:05.000Z,.11
2023-03-11T03:59:36.643Z,.11
2023-03-11T04:00:08.940Z,.11
2023-03-11T04:00:40.822Z,.11
2023-03-11T04:01:12.570Z,.11
2023-03-11T04:01:44.736Z,.11
2023-03-11T04:02:16.464Z,.11
2023-03-11T04:02:48.393Z,.11
2023-03-11T04:03:20.550Z,.11
2023-03-11T04:03:52.727Z,.11
2023-03-11T04:04:24.220Z,.11
2023-03-11T04:04:56.494Z,.11
2023-03-11T04:05:12.926Z,.11
2023-03-11T04:05:56.552Z,.11
2023-03-11T04:06:28.391Z,.11
2023-03-11T04:07:00.197Z,.11
2023-03-11T04:07:32.529Z,0
2023-03-11T04:08:04.568Z,0
2023-03-11T04:08:36.321Z,0
2023-03-11T04:09:08.233Z,0
2023-03-11T04:09:40.169Z,0
2023-03-11T04:10:12.593Z,0
2023-03-11T04:10:44.257Z,0
2023-03-11T04:11:16.119Z,0
2023-03-11T04:11:48.034Z,0
2023-03-11T04:12:20.046Z,0
2023-03-11T04:12:52.294Z,-.11
2023-03-11T04:13:23.972Z,-.11
2023-03-11T04:13:56.170Z,-.11
2023-03-11T04:14:28.109Z,-.11
2023-03-11T04:15:00.024Z,-.11
2023-03-11T04:15:32.423Z,-.11
2023-03-11T04:16:04.085Z,-.11
2023-03-11T04:16:36.133Z,-.11
2023-03-11T04:17:08.236Z,-.11
2023-03-11T04:17:39.684Z,-.22
2023-03-11T04:17:56.127Z,-.22
2023-03-11T04:18:39.662Z,-.22
2023-03-11T04:19:11.952Z,-.22
2023-03-11T04:19:43.819Z,-.22
2023-03-11T04:20:15.968Z,-.22
2023-03-11T04:20:47.757Z,-.22
2023-03-11T04:21:19.804Z,-.22
2023-03-11T04:21:51.963Z,-.22
2023-03-11T04:22:23.602Z,-.22
2023-03-11T04:22:55.618Z,-.22
2023-03-11T04:23:27.640Z,-.22
2023-03-11T04:23:59.716Z,-.22
2023-03-11T04:24:31.782Z,-.27
2023-03-11T04:25:04.072Z,-.27
2023-03-11T04:25:35.624Z,-.27
2023-03-11T04:26:07.678Z,-.27
2023-03-11T04:26:39.443Z,-.27
2023-03-11T04:27:11.712Z,-.27
2023-03-11T04:27:43.393Z,-.27
2023-03-11T04:28:15.442Z,-.27
2023-03-11T04:28:47.287Z,-.27
2023-03-11T04:29:19.311Z,-.27
2023-03-11T04:29:51.347Z,-.27
2023-03-11T04:30:23.598Z,-.27
2023-03-11T04:30:55.423Z,-.27
2023-03-11T04:31:11.517Z,-.27
2023-03-11T04:31:43.053Z,-.27
2023-03-11T04:32:27.548Z,-.38
2023-03-11T04:32:59.102Z,-.38
2023-03-11T04:33:15.373Z,-.38
2023-03-11T04:33:47.382Z,-.38
2023-03-11T04:34:31.275Z,-.38
2023-03-11T04:35:03.884Z,-.38
2023-03-11T04:35:35.079Z,-.38
2023-03-11T04:36:07.022Z,-.38
2023-03-11T04:36:39.046Z,-.38
2023-03-11T04:37:11.172Z,-.38
2023-03-11T04:37:42.820Z,-.38
2023-03-11T04:38:15.025Z,-.38
2023-03-11T04:38:46.969Z,-.27
2023-03-11T04:39:19.034Z,-.27
2023-03-11T04:39:51.069Z,-.27
2023-03-11T04:40:23.226Z,-.27
2023-03-11T04:40:54.829Z,-.27
2023-03-11T04:41:26.915Z,-.38
2023-03-11T04:41:58.790Z,-.38
2023-03-11T04:42:30.922Z,-.38
2023-03-11T04:43:03.553Z,-.50
2023-03-11T04:43:34.998Z,-.50
2023-03-11T04:44:06.829Z,-.50
2023-03-11T04:44:38.718Z,-.50
2023-03-11T04:45:11.748Z,-.50
2023-03-11T04:45:42.796Z,-.50
2023-03-11T04:46:14.631Z,-.50
2023-03-11T04:46:46.679Z,-.50
2023-03-11T04:47:18.713Z,-.50
2023-03-11T04:47:50.726Z,-.50
2023-03-11T04:48:22.599Z,-.61
2023-03-11T04:48:54.508Z,-.61
2023-03-11T04:49:26.580Z,-.61
2023-03-11T04:49:58.566Z,-.61
2023-03-11T04:50:30.705Z,-.61
2023-03-11T04:51:02.975Z,-.61
2023-03-11T04:51:35.070Z,-.61
2023-03-11T04:52:06.626Z,-.61
2023-03-11T04:52:38.380Z,-.72
2023-03-11T04:52:54.545Z,-.72
2023-03-11T04:53:38.467Z,-.72
2023-03-11T04:54:10.329Z,-.72
2023-03-11T04:54:42.517Z,-.72
2023-03-11T04:55:14.461Z,-.72
2023-03-11T04:55:46.387Z,-.72
2023-03-11T04:56:18.398Z,-.72
2023-03-11T04:56:50.346Z,-.72
2023-03-11T04:57:22.265Z,-.72
2023-03-11T04:57:54.295Z,-.72
2023-03-11T04:58:26.403Z,-.72
2023-03-11T04:58:58.155Z,-.77
2023-03-11T04:59:30.190Z,-.77
2023-03-11T05:00:06.502Z,-.77
2023-03-11T05:00:34.130Z,-.77
2023-03-11T05:01:06.288Z,-.77
2023-03-11T05:01:38.244Z,-.88
2023-03-11T05:01:54.241Z,-.88
2023-03-11T05:02:26.017Z,-.88
2023-03-11T05:02:42.276Z,-.88
2023-03-11T05:03:14.096Z,-.88
2023-03-11T05:03:45.923Z,-.88
2023-03-11T05:04:17.970Z,-.88
2023-03-11T05:04:50.189Z,-.88
2023-03-11T05:05:22.747Z,-.88
2023-03-11T05:05:54.255Z,-.88
2023-03-11T05:06:09.839Z,-.88
2023-03-11T05:06:42.247Z,-.88
2023-03-11T05:07:25.927Z,-.88
2023-03-11T05:07:57.824Z,-.88
2023-03-11T05:08:29.745Z,-.88
2023-03-11T05:09:02.336Z,-.88
2023-03-11T05:09:33.743Z,-.88
2023-03-11T05:10:06.025Z,-.77
2023-03-11T05:10:37.559Z,-.77
2023-03-11T05:11:09.619Z,-.77
2023-03-11T05:11:42.064Z,-.77
2023-03-11T05:12:13.684Z,-.77
2023-03-11T05:12:45.697Z,-.77
2023-03-11T05:13:17.512Z,-.77
2023-03-11T05:13:49.469Z,-.77
2023-03-11T05:14:21.636Z,-.88
2023-03-11T05:14:53.536Z,-.88
2023-03-11T05:15:10.442Z,-.88
2023-03-11T05:15:53.485Z,-.88
2023-03-11T05:16:25.477Z,-.88
2023-03-11T05:16:57.541Z,-.88
2023-03-11T05:17:29.312Z,-1.00
2023-03-11T05:18:01.841Z,-1.00
2023-03-11T05:18:33.414Z,-1.11
2023-03-11T05:19:05.563Z,-1.11
2023-03-11T05:19:37.245Z,-1.11
2023-03-11T05:20:09.599Z,-1.11
2023-03-11T05:20:41.461Z,-1.11
2023-03-11T05:21:13.195Z,-1.11
2023-03-11T05:21:45.208Z,-1.11
2023-03-11T05:22:17.244Z,-1.11
2023-03-11T05:22:49.132Z,-1.11
2023-03-11T05:23:21.123Z,-1.11
2023-03-11T05:23:53.149Z,-1.11
2023-03-11T05:24:09.265Z,-1.11
2023-03-11T05:24:41.038Z,-1.11
2023-03-11T05:25:25.409Z,-1.11
2023-03-11T05:25:56.932Z,-1.11
2023-03-11T05:26:28.951Z,-1.11
2023-03-11T05:27:01.170Z,-1.11
2023-03-11T05:27:33.025Z,-1.11
2023-03-11T05:28:05.623Z,-1.11
2023-03-11T05:28:37.024Z,-1.11
2023-03-11T05:28:53.136Z,-1.11
2023-03-11T05:29:36.963Z,-1.11
2023-03-11T05:30:09.795Z,-1.11
2023-03-11T05:30:40.912Z,-1.11
2023-03-11T05:31:12.916Z,-1.11
2023-03-11T05:31:44.817Z,-1.00
2023-03-11T05:32:16.761Z,-1.00
2023-03-11T05:32:48.985Z,-1.00
2023-03-11T05:33:20.769Z,-1.00
2023-03-11T05:33:52.837Z,-1.00
2023-03-11T05:34:24.718Z,-1.00
2023-03-11T05:34:56.712Z,-1.00
2023-03-11T05:35:28.908Z,-1.00
2023-03-11T05:36:00.658Z,-1.00
2023-03-11T05:36:32.651Z,-.88
2023-03-11T05:37:04.785Z,-.88
2023-03-11T05:37:36.583Z,-.88
2023-03-11T05:37:52.687Z,-.88
2023-03-11T05:38:24.500Z,-.88
2023-03-11T05:38:40.440Z,-.88
2023-03-11T05:39:12.857Z,-.88
2023-03-11T05:39:44.395Z,-.88
2023-03-11T05:40:16.532Z,-.88
2023-03-11T05:40:48.449Z,-.77
2023-03-11T05:41:20.552Z,-.77
2023-03-11T05:41:52.285Z,-.77
2023-03-11T05:42:08.501Z,-.77
2023-03-11T05:42:40.222Z,-.77
2023-03-11T05:43:24.399Z,-.77
2023-03-11T05:43:56.435Z,-.77
2023-03-11T05:44:28.233Z,-.77
2023-03-11T05:45:01.275Z,-.77
2023-03-11T05:45:32.440Z,-.77
2023-03-11T05:46:04.790Z,-.77
2023-03-11T05:46:36.541Z,-.77
2023-03-11T05:47:08.328Z,-.72
2023-03-11T05:47:40.389Z,-.72
2023-03-11T05:48:12.626Z,-.72
2023-03-11T05:48:44.123Z,-.72
2023-03-11T05:49:16.269Z,-.72
2023-03-11T05:49:48.299Z,-.72
2023-03-11T05:50:20.554Z,-.72
2023-03-11T05:50:52.214Z,-.72
2023-03-11T05:51:08.283Z,-.72
2023-03-11T05:51:52.125Z,-.72
2023-03-11T05:52:24.049Z,-.72
2023-03-11T05:52:56.231Z,-.72
2023-03-11T05:53:28.046Z,-.72
2023-03-11T05:54:00.099Z,-.72
2023-03-11T05:54:32.048Z,-.72
2023-03-11T05:55:04.606Z,-.72
2023-03-11T05:55:36.023Z,-.72
2023-03-11T05:55:52.390Z,-.72
2023-03-11T05:56:23.894Z,-.72
2023-03-11T05:56:39.976Z,-.72
2023-03-11T05:57:11.972Z,-.72
2023-03-11T05:57:43.773Z,-.72
2023-03-11T05:58:15.991Z,-.72
2023-03-11T05:58:47.855Z,-.72
2023-03-11T05:59:19.613Z,-.72
2023-03-11T05:59:51.834Z,-.72
2023-03-11T06:00:13.490Z,-.72
2023-03-11T06:00:39.743Z,-.72
2023-03-11T06:01:23.868Z,-.72
2023-03-11T06:01:55.624Z,-.72
2023-03-11T06:02:27.779Z,-.72
2023-03-11T06:02:59.811Z,-.72
2023-03-11T06:03:31.766Z,-.72
2023-03-11T06:04:04.792Z,-.72
2023-03-11T06:04:35.670Z,-.72
2023-03-11T06:04:52.247Z,-.72
2023-03-11T06:05:35.877Z,-.72
2023-03-11T06:06:07.618Z,-.72
2023-03-11T06:06:39.463Z,-.72
2023-03-11T06:07:11.671Z,-.72
2023-03-11T06:07:43.472Z,-.72
2023-03-11T06:08:15.606Z,-.72
2023-03-11T06:08:47.423Z,-.72
2023-03-11T06:09:19.406Z,-.72
2023-03-11T06:09:52.077Z,-.72
2023-03-11T06:10:23.666Z,-.72
2023-03-11T06:10:55.273Z,-.72
2023-03-11T06:11:29.268Z,-.72
2023-03-11T06:11:59.406Z,-.72
2023-03-11T06:12:31.565Z,-.72
2023-03-11T06:13:04.024Z,-.72
2023-03-11T06:13:35.161Z,-.72
2023-03-11T06:14:07.270Z,-.72
2023-03-11T06:14:39.299Z,-.72
2023-03-11T06:15:12.140Z,-.61
2023-03-11T06:15:43.096Z,-.61
2023-03-11T06:16:15.201Z,-.61
2023-03-11T06:16:47.007Z,-.61
2023-03-11T06:17:19.283Z,-.61
2023-03-11T06:17:51.327Z,-.61
2023-03-11T06:18:23.100Z,-.61
2023-03-11T06:18:55.062Z,-.61
2023-03-11T06:19:27.140Z,-.61
2023-03-11T06:19:58.774Z,-.61
2023-03-11T06:20:15.423Z,-.61
2023-03-11T06:20:46.805Z,-.61
2023-03-11T06:21:31.164Z,-.61
2023-03-11T06:22:04.109Z,-.50
2023-03-11T06:22:34.789Z,-.50
2023-03-11T06:23:06.981Z,-.50
2023-03-11T06:23:39.033Z,-.50
2023-03-11T06:24:10.786Z,-.50
2023-03-11T06:24:42.987Z,-.50
2023-03-11T06:25:15.043Z,-.50
2023-03-11T06:25:46.901Z,-.38
2023-03-11T06:26:18.949Z,-.27
2023-03-11T06:26:50.784Z,-.27
2023-03-11T06:27:06.815Z,-.27
2023-03-11T06:27:50.637Z,-.22
2023-03-11T06:28:22.859Z,-.22
2023-03-11T06:28:54.552Z,-.22
2023-03-11T06:29:26.498Z,-.11
2023-03-11T06:29:58.586Z,-.11
2023-03-11T06:30:30.944Z,-.11
2023-03-11T06:31:03.549Z,0
2023-03-11T06:31:34.366Z,0
2023-03-11T06:31:50.709Z,0
2023-03-11T06:32:22.621Z,0
2023-03-11T06:32:38.693Z,0
2023-03-11T06:33:10.482Z,.11
2023-03-11T06:33:42.509Z,.11
2023-03-11T06:34:14.233Z,.22
2023-03-11T06:34:46.389Z,.22
2023-03-11T06:35:19.994Z,.27
2023-03-11T06:35:50.255Z,.38
2023-03-11T06:36:23.906Z,.38
2023-03-11T06:36:54.289Z,.50
2023-03-11T06:37:26.247Z,.50
2023-03-11T06:37:58.192Z,.50
2023-03-11T06:38:14.183Z,.50
2023-03-11T06:38:46.225Z,.50
2023-03-11T06:39:30.145Z,.38
2023-03-11T06:40:03.172Z,.27
2023-03-11T06:40:34.103Z,.22
2023-03-11T06:40:50.575Z,.22
2023-03-11T06:41:34.101Z,.22
2023-03-11T06:42:06.120Z,.22
2023-03-11T06:42:37.990Z,.27
2023-03-11T06:43:09.984Z,.27
2023-03-11T06:43:42.172Z,.38
2023-03-11T06:44:13.966Z,.38
2023-03-11T06:44:45.906Z,.50
2023-03-11T06:45:20.710Z,.50
2023-03-11T06:45:49.959Z,.50
2023-03-11T06:46:22.204Z,.38
2023-03-11T06:46:53.750Z,.38
2023-03-11T06:47:25.683Z,.38
2023-03-11T06:47:57.762Z,.38
2023-03-11T06:48:29.819Z,.38
2023-03-11T06:49:02.068Z,.50
2023-03-11T06:49:33.767Z,.61
2023-03-11T06:50:06.470Z,.61
2023-03-11T06:50:37.897Z,.61
2023-03-11T06:51:09.674Z,.61
2023-03-11T06:51:41.752Z,.61
2023-03-11T06:52:13.485Z,.72
2023-03-11T06:52:45.676Z,.72
2023-03-11T06:53:17.677Z,.72
2023-03-11T06:53:49.573Z,.72
2023-03-11T06:54:22.054Z,.72
2023-03-11T06:54:53.539Z,.77
2023-03-11T06:55:25.673Z,.72
2023-03-11T06:55:57.403Z,.72
2023-03-11T06:56:29.316Z,.72
2023-03-11T06:57:02.021Z,.72
2023-03-11T06:57:33.270Z,.72
2023-03-11T06:58:05.590Z,.72
2023-03-11T06:58:21.648Z,.72
2023-03-11T06:58:53.199Z,.72
2023-03-11T06:59:37.613Z,.77
2023-03-11T07:00:10.045Z,.88
2023-03-11T07:00:42.754Z,1.11